createdAt,value
2019-02-04T00:01:04.191Z,-0.40
2019-02-04T00:03:34.607Z,-0.40
2019-02-04T00:06:04.980Z,-0.40
2019-02-04T00:08:34.875Z,-0.50
2019-02-04T00:11:05.493Z,-0.50
2019-02-04T00:13:36.153Z,-0.50
2019-02-04T00:16:06.659Z,-0.50
2019-02-04T00:18:38.671Z,-0.40
2019-02-04T00:21:08.902Z,-0.40
2019-02-04T00:23:39.023Z,-0.30
2019-02-04T00:26:09.481Z,-0.40
2019-02-04T00:28:39.688Z,-0.20
2019-02-04T00:31:09.577Z,-0.30
2019-02-04T00:33:40.778Z,-0.30
2019-02-04T00:36:12.104Z,-0.30
2019-02-04T00:38:42.050Z,-0.30
2019-02-04T00:41:12.559Z,-0.30
2019-02-04T00:43:42.663Z,-0.30
2019-02-04T00:46:13.482Z,-0.30
2019-02-04T00:48:45.119Z,-0.30
2019-02-04T00:51:15.619Z,-0.30
2019-02-04T00:53:45.630Z,-0.20
2019-02-04T00:56:16.251Z,-0.20
2019-02-04T00:58:46.460Z,-0.20
2019-02-04T01:01:16.318Z,-0.20
2019-02-04T01:03:46.611Z,-0.20
2019-02-04T01:06:16.962Z,-0.20
2019-02-04T01:08:47.238Z,-0.20
2019-02-04T01:11:17.588Z,-0.20
2019-02-04T01:13:48.130Z,-0.20
2019-02-04T01:16:18.406Z,-0.20
2019-02-04T01:18:48.605Z,-0.30
2019-02-04T01:21:19.995Z,-0.30
2019-02-04T01:23:50.318Z,-0.20
2019-02-04T01:26:23.542Z,-0.30
2019-02-04T01:28:53.443Z,-0.30
2019-02-04T01:31:23.832Z,-0.30
2019-02-04T01:33:53.916Z,-0.30
2019-02-04T01:36:24.293Z,-0.30
2019-02-04T01:38:55.010Z,-0.30
2019-02-04T01:41:25.257Z,-0.30
2019-02-04T01:43:55.846Z,-0.40
2019-02-04T01:46:26.257Z,-0.40
2019-02-04T01:48:56.456Z,-0.40
2019-02-04T01:51:26.706Z,-0.40
2019-02-04T01:53:57.201Z,-0.40
2019-02-04T01:56:27.745Z,-0.40
2019-02-04T01:58:57.806Z,-0.40
2019-02-04T02:01:28.215Z,-0.40
2019-02-04T02:03:59.262Z,-0.40
2019-02-04T02:06:29.204Z,-0.50
2019-02-04T02:08:59.726Z,-0.50
2019-02-04T02:11:30.048Z,-0.60
2019-02-04T02:14:00.355Z,-0.60
2019-02-04T02:16:34.163Z,-0.60
2019-02-04T02:19:04.382Z,-0.60
2019-02-04T02:21:34.520Z,-0.70
2019-02-04T02:24:06.217Z,-0.70
2019-02-04T02:26:36.588Z,-0.70
2019-02-04T02:29:06.934Z,-0.70
2019-02-04T02:31:37.056Z,-0.70
2019-02-04T02:34:07.226Z,-0.70
2019-02-04T02:36:37.644Z,-0.70
2019-02-04T02:39:09.380Z,-0.70
2019-02-04T02:41:39.351Z,-0.70
2019-02-04T02:44:09.670Z,-0.70
2019-02-04T02:46:39.851Z,-0.70
2019-02-04T02:49:10.018Z,-0.70
2019-02-04T02:51:40.315Z,-0.70
2019-02-04T02:54:10.604Z,-0.60
2019-02-04T02:56:40.861Z,-0.60
2019-02-04T02:59:10.903Z,-0.60
2019-02-04T03:01:41.164Z,-0.60
2019-02-04T03:04:11.636Z,-0.60
2019-02-04T03:06:41.815Z,-0.60
2019-02-04T03:09:12.291Z,-0.60
2019-02-04T03:11:42.529Z,-0.60
2019-02-04T03:14:13.795Z,-0.60
2019-02-04T03:16:44.888Z,-0.60
2019-02-04T03:19:15.043Z,-0.60
2019-02-04T03:21:44.923Z,-0.50
2019-02-04T03:24:15.538Z,-0.50
2019-02-04T03:26:47.571Z,-0.50
2019-02-04T03:29:18.214Z,-0.50
2019-02-04T03:31:48.988Z,-0.50
2019-02-04T03:34:19.320Z,-0.50
2019-02-04T03:36:49.558Z,-0.50
2019-02-04T03:39:19.747Z,-0.50
2019-02-04T03:41:49.648Z,-0.40
2019-02-04T03:44:19.380Z,-0.40
2019-02-04T03:46:50.248Z,-0.40
2019-02-04T03:49:20.277Z,-0.30
2019-02-04T03:51:50.047Z,-0.30
2019-02-04T03:54:20.375Z,-0.20
2019-02-04T03:56:50.802Z,-0.20
2019-02-04T03:59:20.923Z,-0.10
2019-02-04T04:01:51.497Z,0.00
2019-02-04T04:04:21.986Z,0.00
2019-02-04T04:06:51.703Z,0.00
2019-02-04T04:09:22.264Z,0.10
2019-02-04T04:11:52.447Z,0.10
2019-02-04T04:14:22.314Z,0.20
2019-02-04T04:16:52.659Z,0.20
2019-02-04T04:19:22.731Z,0.30
2019-02-04T04:21:52.787Z,0.40
2019-02-04T04:24:23.031Z,0.50
2019-02-04T04:26:53.107Z,0.50
2019-02-04T04:29:24.400Z,0.60
2019-02-04T04:31:54.226Z,0.50
2019-02-04T04:34:23.992Z,0.60
2019-02-04T04:36:53.630Z,0.60
2019-02-04T04:39:24.128Z,0.60
2019-02-04T04:41:54.466Z,0.60
2019-02-04T04:44:24.597Z,0.70
2019-02-04T04:46:54.839Z,0.60
2019-02-04T04:49:25.105Z,0.60
2019-02-04T04:51:55.447Z,0.60
2019-02-04T04:54:26.075Z,0.70
2019-02-04T04:56:55.880Z,0.70
2019-02-04T04:59:25.866Z,0.70
2019-02-04T05:01:56.195Z,0.70
2019-02-04T05:04:25.937Z,0.80
2019-02-04T05:06:55.642Z,0.80
2019-02-04T05:09:25.794Z,0.80
2019-02-04T05:11:55.706Z,0.80
2019-02-04T05:14:25.378Z,1.00
2019-02-04T05:16:55.726Z,1.00
2019-02-04T05:19:25.531Z,1.00
2019-02-04T05:21:55.143Z,0.90
2019-02-04T05:24:24.944Z,1.00
2019-02-04T05:26:55.211Z,1.00
2019-02-04T05:29:24.978Z,0.90
2019-02-04T05:31:55.919Z,1.00
2019-02-04T05:34:25.603Z,1.10
2019-02-04T05:36:55.343Z,1.10
2019-02-04T05:39:25.667Z,1.10
2019-02-04T05:41:55.684Z,1.00
2019-02-04T05:44:25.583Z,1.00
2019-02-04T05:46:56.777Z,1.00
2019-02-04T05:49:26.379Z,1.00
2019-02-04T05:51:56.528Z,1.00
2019-02-04T05:54:26.179Z,1.00
2019-02-04T05:56:56.331Z,1.10
2019-02-04T05:59:26.087Z,1.10
2019-02-04T06:01:56.083Z,1.10
2019-02-04T06:04:25.810Z,1.10
2019-02-04T06:06:56.175Z,1.10
2019-02-04T06:09:26.278Z,1.20
2019-02-04T06:11:56.070Z,1.10
2019-02-04T06:14:26.611Z,1.20
2019-02-04T06:16:56.859Z,1.20
2019-02-04T06:19:27.083Z,1.20
2019-02-04T06:21:57.010Z,1.20
2019-02-04T06:24:28.038Z,1.20
2019-02-04T06:26:58.282Z,1.20
2019-02-04T06:29:28.346Z,1.30
2019-02-04T06:31:58.352Z,1.30
2019-02-04T06:34:28.991Z,1.30
2019-02-04T06:36:58.691Z,1.20
2019-02-04T06:39:28.884Z,1.20
2019-02-04T06:41:58.579Z,1.20
2019-02-04T06:44:31.517Z,1.30
2019-02-04T06:47:01.995Z,1.20
2019-02-04T06:49:31.719Z,1.20
2019-02-04T06:52:02.188Z,1.20
2019-02-04T06:54:32.718Z,1.30
2019-02-04T06:57:02.549Z,1.30
2019-02-04T06:59:33.315Z,1.30
2019-02-04T07:02:03.034Z,1.30
2019-02-04T07:04:32.646Z,1.30
2019-02-04T07:07:02.921Z,1.40
2019-02-04T07:09:33.190Z,1.30
2019-02-04T07:12:03.071Z,1.20
2019-02-04T07:14:33.478Z,1.20
2019-02-04T07:17:04.551Z,1.20
2019-02-04T07:19:34.295Z,1.20
2019-02-04T07:22:04.487Z,1.20
2019-02-04T07:24:42.535Z,1.30
2019-02-04T07:27:05.599Z,1.20
2019-02-04T07:29:36.266Z,1.20
2019-02-04T07:32:06.983Z,1.20
2019-02-04T07:34:37.787Z,1.20
2019-02-04T07:37:08.735Z,1.20
2019-02-04T07:39:38.655Z,1.20
2019-02-04T07:42:08.906Z,1.20
2019-02-04T07:44:47.504Z,1.10
2019-02-04T07:47:17.187Z,1.20
2019-02-04T07:49:47.205Z,1.10
2019-02-04T07:52:17.039Z,1.10
2019-02-04T07:54:46.835Z,1.20
2019-02-04T07:57:16.854Z,1.20
2019-02-04T07:59:47.901Z,1.20
2019-02-04T08:02:19.040Z,1.20
2019-02-04T08:04:48.870Z,1.20
2019-02-04T08:07:19.562Z,1.30
2019-02-04T08:09:49.236Z,1.20
2019-02-04T08:12:19.227Z,1.40
2019-02-04T08:14:49.067Z,1.40
2019-02-04T08:17:18.790Z,1.40
2019-02-04T08:19:49.151Z,1.50
2019-02-04T08:22:18.940Z,1.60
2019-02-04T08:24:48.771Z,1.70
2019-02-04T08:27:18.742Z,1.70
2019-02-04T08:29:48.532Z,1.80
2019-02-04T08:32:18.727Z,1.80
2019-02-04T08:34:48.767Z,1.70
2019-02-04T08:37:18.568Z,1.60
2019-02-04T08:39:49.378Z,1.70
2019-02-04T08:42:19.175Z,1.70
2019-02-04T08:44:48.879Z,1.80
2019-02-04T08:47:22.610Z,1.80
2019-02-04T08:49:58.042Z,1.80
2019-02-04T08:52:20.987Z,1.80
2019-02-04T08:54:51.091Z,1.80
2019-02-04T08:57:20.999Z,1.90
2019-02-04T08:59:51.047Z,2.10
2019-02-04T09:02:20.828Z,2.10
2019-02-04T09:04:50.891Z,2.10
2019-02-04T09:07:22.812Z,2.10
2019-02-04T09:09:54.573Z,2.00
2019-02-04T09:12:24.461Z,2.00
2019-02-04T09:14:54.786Z,2.20
2019-02-04T09:17:24.782Z,2.30
2019-02-04T09:19:56.103Z,2.40
2019-02-04T09:22:25.839Z,2.30
2019-02-04T09:24:56.009Z,2.40
2019-02-04T09:27:25.699Z,2.40
2019-02-04T09:29:55.378Z,2.50
2019-02-04T09:32:25.587Z,2.60
2019-02-04T09:34:55.263Z,2.70
2019-02-04T09:37:25.629Z,2.80
2019-02-04T09:39:55.422Z,2.70
2019-02-04T09:42:26.387Z,2.90
2019-02-04T09:44:56.112Z,3.00
2019-02-04T09:47:26.371Z,2.90
2019-02-04T09:49:56.234Z,3.00
2019-02-04T09:52:25.896Z,3.20
2019-02-04T09:54:56.979Z,3.10
2019-02-04T09:57:28.323Z,3.20
2019-02-04T09:59:58.961Z,3.20
2019-02-04T10:02:29.291Z,3.30
2019-02-04T10:04:59.508Z,3.20
2019-02-04T10:07:29.130Z,3.30
2019-02-04T10:09:59.143Z,3.20
2019-02-04T10:12:29.242Z,3.10
2019-02-04T10:14:59.143Z,3.20
2019-02-04T10:17:28.899Z,3.30
2019-02-04T10:19:58.670Z,3.30
2019-02-04T10:22:28.346Z,3.60
2019-02-04T10:24:57.973Z,3.60
2019-02-04T10:27:28.118Z,3.60
2019-02-04T10:29:57.837Z,3.80
2019-02-04T10:32:27.510Z,3.50
2019-02-04T10:34:57.439Z,3.50
2019-02-04T10:37:27.203Z,3.60
2019-02-04T10:39:57.059Z,3.90
2019-02-04T10:42:35.946Z,3.90
2019-02-04T10:45:11.727Z,3.80
2019-02-04T10:47:45.674Z,3.60
2019-02-04T10:50:21.667Z,3.80
2019-02-04T10:52:58.974Z,4.00
2019-02-04T10:55:29.881Z,3.90
2019-02-04T10:58:00.134Z,3.90
2019-02-04T11:00:37.896Z,3.90
2019-02-04T11:03:09.121Z,4.00
2019-02-04T11:05:41.139Z,4.10
2019-02-04T11:08:13.078Z,4.10
2019-02-04T11:10:43.243Z,4.10
2019-02-04T11:13:17.034Z,4.10
2019-02-04T11:15:47.874Z,4.00
2019-02-04T11:18:18.022Z,3.90
2019-02-04T11:20:57.900Z,4.00
2019-02-04T11:23:19.244Z,4.10
2019-02-04T11:25:49.147Z,4.00
2019-02-04T11:28:19.477Z,4.00
2019-02-04T11:30:55.147Z,3.90
2019-02-04T11:33:25.017Z,3.90
2019-02-04T11:35:54.836Z,4.10
2019-02-04T11:38:24.540Z,4.20
2019-02-04T11:40:54.871Z,4.00
2019-02-04T11:43:25.619Z,4.00
2019-02-04T11:45:56.231Z,4.00
2019-02-04T11:48:26.187Z,3.90
2019-02-04T11:51:09.200Z,3.90
2019-02-04T11:53:33.412Z,3.90
2019-02-04T11:56:03.263Z,4.10
2019-02-04T11:58:33.519Z,3.90
2019-02-04T12:01:03.291Z,4.00
2019-02-04T12:03:32.923Z,4.20
2019-02-04T12:06:02.543Z,4.20
2019-02-04T12:08:32.620Z,4.30
2019-02-04T12:11:04.455Z,4.30
2019-02-04T12:13:34.397Z,4.60
2019-02-04T12:16:04.512Z,4.40
2019-02-04T12:18:34.364Z,4.50
2019-02-04T12:21:05.187Z,4.60
2019-02-04T12:23:34.972Z,4.70
2019-02-04T12:26:04.818Z,4.50
2019-02-04T12:28:35.127Z,4.50
2019-02-04T12:31:05.336Z,4.50
2019-02-04T12:33:35.253Z,4.50
2019-02-04T12:36:05.476Z,4.40
2019-02-04T12:38:35.456Z,4.70
2019-02-04T12:41:05.363Z,4.50
2019-02-04T12:43:37.662Z,4.40
2019-02-04T12:46:07.607Z,4.50
2019-02-04T12:48:38.872Z,4.80
2019-02-04T12:51:08.950Z,4.90
2019-02-04T12:53:38.971Z,4.80
2019-02-04T12:56:08.853Z,4.90
2019-02-04T12:58:38.635Z,5.00
2019-02-04T13:01:09.511Z,5.00
2019-02-04T13:03:39.398Z,4.90
2019-02-04T13:06:09.140Z,4.80
2019-02-04T13:08:39.012Z,4.80
2019-02-04T13:11:08.842Z,4.60
2019-02-04T13:13:40.799Z,4.70
2019-02-04T13:16:10.873Z,4.70
2019-02-04T13:18:40.691Z,4.80
2019-02-04T13:21:10.495Z,4.80
2019-02-04T13:23:40.148Z,4.80
2019-02-04T13:26:09.859Z,4.70
2019-02-04T13:28:39.802Z,4.90
2019-02-04T13:31:09.579Z,4.70
2019-02-04T13:33:39.312Z,4.60
2019-02-04T13:36:09.256Z,4.80
2019-02-04T13:38:39.239Z,4.80
2019-02-04T13:41:11.378Z,4.80
2019-02-04T13:43:41.799Z,4.70
2019-02-04T13:46:11.775Z,4.70
2019-02-04T13:48:41.667Z,4.80
2019-02-04T13:51:12.236Z,4.80
2019-02-04T13:53:42.065Z,4.90
2019-02-04T13:56:11.867Z,4.70
2019-02-04T13:58:42.066Z,4.70
2019-02-04T14:01:11.953Z,4.70
2019-02-04T14:03:41.579Z,4.70
2019-02-04T14:06:11.324Z,4.60
2019-02-04T14:08:41.311Z,4.50
2019-02-04T14:11:11.067Z,4.70
2019-02-04T14:13:40.731Z,4.60
2019-02-04T14:16:10.621Z,4.50
2019-02-04T14:18:40.595Z,4.50
2019-02-04T14:21:10.565Z,4.50
2019-02-04T14:23:40.667Z,4.50
2019-02-04T14:26:20.183Z,4.60
2019-02-04T14:28:50.399Z,4.50
2019-02-04T14:31:20.739Z,4.40
2019-02-04T14:33:50.499Z,4.60
2019-02-04T14:36:20.948Z,4.60
2019-02-04T14:38:50.555Z,4.60
2019-02-04T14:41:20.313Z,4.60
2019-02-04T14:43:50.281Z,4.50
2019-02-04T14:46:22.635Z,4.40
2019-02-04T14:49:30.056Z,4.40
2019-02-04T14:52:20.922Z,4.50
2019-02-04T14:54:57.592Z,4.50
2019-02-04T14:57:31.467Z,4.60
2019-02-04T15:00:21.082Z,4.40
2019-02-04T15:03:02.599Z,4.40
2019-02-04T15:05:41.463Z,4.30
2019-02-04T15:08:33.234Z,4.40
2019-02-04T15:11:08.568Z,4.40
2019-02-04T15:13:53.139Z,4.40
2019-02-04T15:16:31.744Z,4.50
2019-02-04T15:19:18.996Z,4.40
2019-02-04T15:21:51.752Z,4.50
2019-02-04T15:24:45.352Z,4.30
2019-02-04T15:27:34.099Z,4.40
2019-02-04T15:30:12.509Z,4.40
2019-02-04T15:32:50.783Z,4.30
2019-02-04T15:35:50.139Z,4.30
2019-02-04T15:38:34.771Z,4.20
2019-02-04T15:41:25.278Z,4.20
2019-02-04T15:44:01.248Z,4.30
2019-02-04T15:46:39.663Z,4.30
2019-02-04T15:49:18.315Z,4.30
2019-02-04T15:51:50.691Z,4.30
2019-02-04T15:54:21.688Z,4.30
2019-02-04T15:56:51.879Z,4.30
2019-02-04T15:59:21.651Z,4.40
2019-02-04T16:01:51.610Z,4.30
2019-02-04T16:04:29.689Z,4.40
2019-02-04T16:06:59.888Z,4.40
2019-02-04T16:09:30.568Z,4.50
2019-02-04T16:12:00.716Z,4.40
2019-02-04T16:14:32.627Z,4.40
2019-02-04T16:17:03.410Z,4.50
2019-02-04T16:19:33.151Z,4.50
2019-02-04T16:22:06.314Z,4.60
2019-02-04T16:24:36.364Z,4.50
2019-02-04T16:27:06.569Z,4.50
2019-02-04T16:29:36.972Z,4.50
2019-02-04T16:32:07.219Z,4.50
2019-02-04T16:34:38.699Z,4.50
2019-02-04T16:37:08.463Z,4.50
2019-02-04T16:39:38.839Z,4.60
2019-02-04T16:42:08.911Z,4.50
2019-02-04T16:44:38.583Z,4.50
2019-02-04T16:47:14.667Z,4.50
2019-02-04T16:49:44.500Z,4.50
2019-02-04T16:52:14.399Z,4.50
2019-02-04T16:54:44.903Z,4.50
2019-02-04T16:57:15.766Z,4.60
2019-02-04T16:59:45.904Z,4.60
2019-02-04T17:02:15.856Z,4.60
2019-02-04T17:04:45.720Z,4.60
2019-02-04T17:07:15.972Z,4.40
2019-02-04T17:09:45.810Z,4.40
2019-02-04T17:12:15.885Z,4.40
2019-02-04T17:14:45.892Z,4.50
2019-02-04T17:17:15.932Z,4.50
2019-02-04T17:19:45.814Z,4.50
2019-02-04T17:22:16.053Z,4.50
2019-02-04T17:24:45.677Z,4.40
2019-02-04T17:27:15.343Z,4.50
2019-02-04T17:29:48.397Z,4.50
2019-02-04T17:32:18.010Z,4.60
2019-02-04T17:34:47.977Z,4.60
2019-02-04T17:37:18.235Z,4.70
2019-02-04T17:39:48.285Z,4.70
2019-02-04T17:42:18.111Z,4.60
2019-02-04T17:44:48.240Z,4.50
2019-02-04T17:47:18.120Z,4.50
2019-02-04T17:49:47.872Z,4.50
2019-02-04T17:52:17.911Z,4.40
2019-02-04T17:54:48.277Z,4.40
2019-02-04T17:57:18.157Z,4.40
2019-02-04T17:59:48.847Z,4.30
2019-02-04T18:02:18.721Z,4.30
2019-02-04T18:04:48.879Z,4.30
2019-02-04T18:07:20.552Z,4.40
2019-02-04T18:09:50.158Z,4.30
2019-02-04T18:12:20.128Z,4.20
2019-02-04T18:14:49.980Z,4.30
2019-02-04T18:17:19.728Z,4.30
2019-02-04T18:19:49.656Z,4.30
2019-02-04T18:22:19.867Z,4.30
2019-02-04T18:24:51.399Z,4.40
2019-02-04T18:27:21.084Z,4.40
2019-02-04T18:29:50.845Z,4.50
2019-02-04T18:32:20.708Z,4.40
2019-02-04T18:34:50.644Z,4.40
2019-02-04T18:37:20.892Z,4.50
2019-02-04T18:39:50.869Z,4.50
2019-02-04T18:42:22.170Z,4.50
2019-02-04T18:44:52.238Z,4.60
2019-02-04T18:47:22.156Z,4.50
2019-02-04T18:49:52.031Z,4.50
2019-02-04T18:52:24.888Z,4.50
2019-02-04T18:54:54.959Z,4.50
2019-02-04T18:57:26.300Z,4.50
2019-02-04T18:59:56.760Z,4.50
2019-02-04T19:02:27.661Z,4.50
2019-02-04T19:04:59.183Z,4.50
2019-02-04T19:07:29.998Z,4.40
2019-02-04T19:10:00.524Z,4.40
2019-02-04T19:12:30.709Z,4.40
2019-02-04T19:15:01.251Z,4.30
2019-02-04T19:17:32.601Z,4.30
2019-02-04T19:20:02.849Z,4.30
2019-02-04T19:22:34.076Z,4.40
2019-02-04T19:25:04.235Z,4.30
2019-02-04T19:27:34.434Z,4.30
2019-02-04T19:30:06.120Z,4.40
2019-02-04T19:32:36.308Z,4.30
2019-02-04T19:35:08.912Z,4.30
2019-02-04T19:37:39.005Z,4.30
2019-02-04T19:40:14.635Z,4.20
2019-02-04T19:42:44.822Z,4.30
2019-02-04T19:45:17.711Z,4.20
2019-02-04T19:47:48.121Z,4.20
2019-02-04T19:50:23.481Z,4.20
2019-02-04T19:52:53.695Z,4.20
2019-02-04T19:55:24.520Z,4.20
2019-02-04T19:57:54.495Z,4.20
2019-02-04T20:00:24.948Z,4.30
2019-02-04T20:02:55.417Z,4.20
2019-02-04T20:05:31.671Z,4.20
2019-02-04T20:08:01.678Z,4.10
2019-02-04T20:10:33.791Z,4.10
2019-02-04T20:13:04.043Z,4.00
2019-02-04T20:15:34.499Z,4.00
2019-02-04T20:18:04.685Z,4.10
2019-02-04T20:20:34.990Z,3.90
2019-02-04T20:23:05.154Z,3.90
2019-02-04T20:25:36.625Z,3.80
2019-02-04T20:28:08.467Z,3.80
2019-02-04T20:30:45.920Z,3.90
2019-02-04T20:33:12.938Z,3.70
2019-02-04T20:35:42.914Z,3.70
2019-02-04T20:38:13.148Z,3.70
2019-02-04T20:40:43.470Z,3.70
2019-02-04T20:43:13.455Z,3.70
2019-02-04T20:45:43.621Z,3.80
2019-02-04T20:48:14.723Z,3.80
2019-02-04T20:50:47.360Z,3.80
2019-02-04T20:53:17.331Z,3.70
2019-02-04T20:55:47.450Z,3.70
2019-02-04T20:58:17.358Z,3.70
2019-02-04T21:00:47.255Z,3.80
2019-02-04T21:03:17.269Z,3.90
2019-02-04T21:05:47.285Z,3.90
2019-02-04T21:08:17.362Z,3.80
2019-02-04T21:10:47.151Z,3.80
2019-02-04T21:13:16.968Z,3.80
2019-02-04T21:15:47.047Z,3.80
2019-02-04T21:18:16.849Z,3.80
2019-02-04T21:20:46.710Z,3.70
2019-02-04T21:23:16.628Z,3.70
2019-02-04T21:25:46.486Z,3.70
2019-02-04T21:28:16.164Z,3.70
2019-02-04T21:30:45.806Z,3.60
2019-02-04T21:33:15.566Z,3.70
2019-02-04T21:35:45.361Z,3.70
2019-02-04T21:38:15.217Z,3.60
2019-02-04T21:40:45.117Z,3.60
2019-02-04T21:43:15.316Z,3.70
2019-02-04T21:45:46.592Z,3.50
2019-02-04T21:48:16.397Z,3.50
2019-02-04T21:50:47.475Z,3.50
2019-02-04T21:53:17.192Z,3.50
2019-02-04T21:55:47.158Z,3.50
2019-02-04T21:58:17.027Z,3.60
2019-02-04T22:00:47.084Z,3.60
2019-02-04T22:03:16.927Z,3.60
2019-02-04T22:05:47.219Z,3.70
2019-02-04T22:08:17.044Z,3.70
2019-02-04T22:10:47.573Z,3.70
2019-02-04T22:13:17.307Z,3.60
2019-02-04T22:15:47.444Z,3.60
2019-02-04T22:18:17.528Z,3.40
2019-02-04T22:20:47.763Z,3.50
2019-02-04T22:23:17.472Z,3.50
2019-02-04T22:25:47.873Z,3.50
2019-02-04T22:28:17.670Z,3.50
2019-02-04T22:30:48.024Z,3.50
2019-02-04T22:33:18.025Z,3.60
2019-02-04T22:35:48.240Z,3.40
2019-02-04T22:38:18.608Z,3.40
2019-02-04T22:40:49.107Z,3.30
2019-02-04T22:43:19.404Z,3.30
2019-02-04T22:45:49.407Z,3.20
2019-02-04T22:48:19.999Z,3.20
2019-02-04T22:50:50.367Z,3.20
2019-02-04T22:53:20.463Z,3.10
2019-02-04T22:55:50.673Z,3.10
2019-02-04T22:58:20.599Z,3.20
2019-02-04T23:01:02.011Z,3.20
2019-02-04T23:03:31.988Z,3.10
2019-02-04T23:06:01.849Z,3.10
2019-02-04T23:08:31.776Z,2.90
2019-02-04T23:11:01.664Z,2.80
2019-02-04T23:13:32.534Z,2.80
2019-02-04T23:16:02.731Z,2.80
2019-02-04T23:18:32.439Z,2.70
2019-02-04T23:21:02.265Z,2.80
2019-02-04T23:23:32.104Z,2.70
2019-02-04T23:26:01.831Z,2.80
2019-02-04T23:28:32.153Z,2.80
2019-02-04T23:31:02.386Z,2.70
2019-02-04T23:33:34.038Z,2.70
2019-02-04T23:36:03.754Z,2.70
2019-02-04T23:38:33.887Z,2.70
2019-02-04T23:41:03.819Z,2.70
2019-02-04T23:43:33.770Z,2.80
2019-02-04T23:46:03.959Z,2.80
2019-02-04T23:48:33.960Z,2.80
2019-02-04T23:51:03.993Z,2.80
2019-02-04T23:53:33.823Z,2.80
2019-02-04T23:56:04.353Z,2.80
2019-02-04T23:58:34.850Z,2.80
